Time;durP1;ratioP1;P1;durP2;ratioP2;P2;SDS_P1;SDS_P2;PMS_P1;PMS_P2;Temp;Humidity;BMP_temperature;BMP_pressure;BME280_temperature;BME280_humidity;BME280_pressure;Samples;Min_cycle;Max_cycle;Signal;HPM_P1;HPM_P2
2022/04/26 03:37:20;;;;;;;12.32;7.68;;;4.60;99.90;;;;;;5059662;28;20519;-71
2022/04/26 03:39:47;;;;;;;17.42;7.60;;;4.50;99.90;;;;;;5061150;28;20044;-71
2022/04/26 03:42:14;;;;;;;12.98;6.80;;;4.50;99.90;;;;;;5077405;28;20052;-71
2022/04/26 03:44:42;;;;;;;11.68;7.05;;;4.40;99.90;;;;;;5061283;28;20056;-71
2022/04/26 03:47:09;;;;;;;9.73;6.78;;;4.40;99.90;;;;;;5059720;28;20229;-73
2022/04/26 03:49:36;;;;;;;11.57;6.57;;;4.40;99.90;;;;;;5058140;28;20372;-72
2022/04/26 03:52:03;;;;;;;14.35;7.05;;;4.40;99.90;;;;;;5060753;28;20044;-73
2022/04/26 03:54:30;;;;;;;13.32;6.68;;;4.40;99.90;;;;;;5059646;28;20491;-72
2022/04/26 03:56:58;;;;;;;9.60;6.65;;;4.30;99.90;;;;;;5076803;28;20045;-73
2022/04/26 03:59:25;;;;;;;10.05;6.60;;;4.30;99.90;;;;;;5056322;28;20047;-71
2022/04/26 04:01:51;;;;;;;14.70;6.18;;;4.30;99.90;;;;;;5059798;28;20487;-71
2022/04/26 04:04:19;;;;;;;9.77;6.82;;;4.30;99.90;;;;;;5072203;28;20041;-72
2022/04/26 04:06:46;;;;;;;14.68;8.50;;;4.30;99.90;;;;;;5056613;28;20055;-71
2022/04/26 04:09:13;;;;;;;11.60;7.20;;;4.20;99.90;;;;;;5061571;28;20044;-71
2022/04/26 04:11:39;;;;;;;10.85;7.10;;;4.20;99.90;;;;;;5061806;28;20664;-72
2022/04/26 04:14:06;;;;;;;11.73;7.15;;;4.20;99.90;;;;;;5077276;28;20058;-72
2022/04/26 04:16:33;;;;;;;8.98;6.32;;;4.10;99.90;;;;;;5061308;28;20066;-72
2022/04/26 04:19:18;;;;;;;11.82;6.40;;;4.10;99.90;;;;;;5061893;28;20174;-72
2022/04/26 04:21:46;;;;;;;13.50;7.05;;;4.00;99.90;;;;;;5049694;28;20480;-71
2022/04/26 04:24:13;;;;;;;14.80;7.20;;;4.00;99.90;;;;;;5051395;28;20440;-70
2022/04/26 04:26:40;;;;;;;11.98;6.55;;;4.00;99.90;;;;;;5059847;28;20512;-71
2022/04/26 04:29:08;;;;;;;11.25;6.55;;;3.90;99.90;;;;;;5059115;28;20052;-70
2022/04/26 04:31:35;;;;;;;15.35;7.72;;;3.90;99.90;;;;;;5054669;28;20049;-70
2022/04/26 04:34:02;;;;;;;10.50;6.93;;;3.90;99.90;;;;;;5052109;28;20068;-70
2022/04/26 04:36:29;;;;;;;12.10;6.75;;;3.90;99.90;;;;;;5058950;28;20144;-70
2022/04/26 04:38:56;;;;;;;12.75;7.72;;;3.80;99.90;;;;;;5053252;28;20045;-70
2022/04/26 04:41:23;;;;;;;10.10;7.28;;;3.80;99.90;;;;;;5048070;28;20052;-72
2022/04/26 04:43:50;;;;;;;10.20;6.13;;;3.80;99.90;;;;;;5065570;28;20045;-71
2022/04/26 04:46:17;;;;;;;9.63;6.80;;;3.80;99.90;;;;;;5054943;28;20048;-70
2022/04/26 04:48:44;;;;;;;9.80;6.47;;;3.80;99.90;;;;;;5063975;28;20048;-70
2022/04/26 04:51:11;;;;;;;12.23;7.47;;;3.80;99.90;;;;;;5079298;28;20052;-70
2022/04/26 04:53:38;;;;;;;12.77;6.57;;;3.70;99.90;;;;;;5055589;28;20059;-71
2022/04/26 04:56:08;;;;;;;16.35;6.80;;;3.70;99.90;;;;;;5057183;28;20064;-70
2022/04/26 04:58:36;;;;;;;12.85;6.32;;;3.70;99.90;;;;;;5065021;28;20396;-72
2022/04/26 05:01:02;;;;;;;10.80;6.43;;;3.70;99.90;;;;;;5080437;28;20048;-71
2022/04/26 05:03:29;;;;;;;13.52;7.28;;;3.70;99.90;;;;;;5061998;28;20048;-71
2022/04/26 05:05:56;;;;;;;12.18;7.65;;;3.80;99.90;;;;;;5064129;28;20059;-70
2022/04/26 05:08:24;;;;;;;11.10;6.65;;;3.80;99.90;;;;;;5064241;28;20049;-70
2022/04/26 05:10:52;;;;;;;10.48;7.47;;;3.70;99.90;;;;;;5064689;28;20055;-72
2022/04/26 05:13:19;;;;;;;11.60;7.45;;;3.70;99.90;;;;;;5062333;28;20048;-72
2022/04/26 05:15:46;;;;;;;16.92;6.78;;;3.80;99.90;;;;;;5063105;28;20052;-70
2022/04/26 05:18:14;;;;;;;14.27;6.82;;;3.80;99.90;;;;;;5078955;28;20040;-70
2022/04/26 05:20:40;;;;;;;15.18;8.52;;;3.80;99.90;;;;;;5062587;28;20054;-71
2022/04/26 05:25:53;;;;;;;12.68;8.30;;;3.90;99.90;;;;;;5059543;28;20761;-71
2022/04/26 05:28:19;;;;;;;13.73;7.88;;;3.90;99.90;;;;;;5064141;28;20082;-70
2022/04/26 05:30:53;;;;;;;22.77;9.23;;;4.00;99.90;;;;;;5060981;28;20487;-72
2022/04/26 05:33:21;;;;;;;19.00;10.18;;;4.10;99.90;;;;;;5063173;28;20056;-71
2022/04/26 05:35:49;;;;;;;16.30;8.77;;;4.10;99.90;;;;;;5060674;28;20492;-73
2022/04/26 05:38:16;;;;;;;13.75;8.77;;;4.20;99.90;;;;;;5062127;28;20043;-71
2022/04/26 05:40:43;;;;;;;15.02;8.48;;;4.30;99.90;;;;;;5061989;28;20052;-72
2022/04/26 05:43:10;;;;;;;19.42;10.00;;;4.30;99.90;;;;;;5062848;28;20479;-71
2022/04/26 05:45:37;;;;;;;15.77;9.20;;;4.40;99.90;;;;;;5063882;28;20055;-71
2022/04/26 05:48:09;;;;;;;16.33;9.50;;;4.40;99.90;;;;;;5062041;28;20052;-71
2022/04/26 05:50:37;;;;;;;15.23;8.50;;;4.60;99.90;;;;;;5061918;28;20125;-73
2022/04/26 05:53:04;;;;;;;15.85;9.48;;;4.70;99.90;;;;;;5061708;28;20040;-72
2022/04/26 05:55:31;;;;;;;17.30;10.30;;;4.80;99.90;;;;;;5077343;28;20597;-71
2022/04/26 05:57:58;;;;;;;11.68;8.07;;;4.90;99.90;;;;;;5063920;28;20044;-72
2022/04/26 06:00:24;;;;;;;14.57;8.70;;;5.00;99.90;;;;;;5061820;28;20052;-72
2022/04/26 06:02:52;;;;;;;19.08;10.20;;;5.10;99.90;;;;;;5062161;28;20499;-71
2022/04/26 06:05:22;;;;;;;15.10;9.85;;;5.20;99.90;;;;;;5062711;28;20048;-71
2022/04/26 06:07:49;;;;;;;14.73;9.90;;;5.30;99.90;;;;;;5063545;28;20040;-69
2022/04/26 06:10:16;;;;;;;13.63;9.02;;;5.40;99.90;;;;;;5061182;28;20048;-71
2022/04/26 06:12:44;;;;;;;17.88;10.18;;;5.40;99.90;;;;;;5061896;28;20045;-70
2022/04/26 06:15:12;;;;;;;17.50;9.75;;;5.50;99.90;;;;;;5061310;28;20364;-70
2022/04/26 06:17:39;;;;;;;16.17;9.90;;;5.60;99.90;;;;;;5062372;28;20079;-72
2022/04/26 06:20:06;;;;;;;16.83;11.25;;;5.70;99.90;;;;;;5063610;28;20048;-72
2022/04/26 06:22:33;;;;;;;19.38;11.15;;;5.70;99.90;;;;;;5061273;28;20078;-72
2022/04/26 06:25:01;;;;;;;18.13;9.52;;;5.90;99.90;;;;;;5060822;28;20045;-71
2022/04/26 06:27:27;;;;;;;19.27;10.38;;;6.00;99.90;;;;;;5061047;28;20381;-75
2022/04/26 06:29:54;;;;;;;16.05;9.05;;;6.10;99.90;;;;;;5027955;28;20048;-71
2022/04/26 06:32:21;;;;;;;37.40;25.15;;;6.20;99.90;;;;;;5060211;28;20399;-73
2022/04/26 06:34:48;;;;;;;29.25;19.63;;;6.30;99.90;;;;;;5061365;28;20056;-74
2022/04/26 06:37:15;;;;;;;19.60;10.85;;;6.40;99.90;;;;;;5054446;28;20048;-74
2022/04/26 06:39:42;;;;;;;14.10;9.80;;;6.50;99.90;;;;;;5061079;28;20049;-73
2022/04/26 06:42:09;;;;;;;18.08;9.15;;;6.70;99.90;;;;;;5063509;28;20079;-71
2022/04/26 06:44:36;;;;;;;11.20;7.28;;;6.80;99.90;;;;;;5060863;28;20044;-71
2022/04/26 06:47:03;;;;;;;25.30;6.95;;;6.90;99.90;;;;;;5062575;28;20051;-75
2022/04/26 06:49:30;;;;;;;11.70;6.45;;;7.10;99.90;;;;;;5048357;28;20047;-75
2022/04/26 06:51:57;;;;;;;25.10;15.95;;;7.20;99.90;;;;;;5062887;28;20048;-71
2022/04/26 06:54:24;;;;;;;11.45;7.22;;;7.40;99.90;;;;;;5058667;28;20037;-74
2022/04/26 06:56:51;;;;;;;11.25;6.20;;;7.40;99.90;;;;;;5055543;28;20056;-74
2022/04/26 06:59:18;;;;;;;18.80;7.25;;;7.60;99.90;;;;;;5060523;28;20127;-74
2022/04/26 07:01:52;;;;;;;16.95;6.72;;;7.60;99.90;;;;;;5061590;28;20388;-73
2022/04/26 07:04:21;;;;;;;11.85;5.18;;;7.70;99.90;;;;;;5060731;28;20406;-73
2022/04/26 07:06:49;;;;;;;11.93;5.55;;;7.80;99.90;;;;;;5060750;28;20048;-71
2022/04/26 07:09:16;;;;;;;11.10;5.97;;;7.90;99.90;;;;;;5077114;28;20045;-72
2022/04/26 07:11:43;;;;;;;12.07;6.32;;;8.00;99.90;;;;;;5053592;28;20054;-70
2022/04/26 07:14:11;;;;;;;8.70;4.47;;;8.20;99.90;;;;;;5059205;28;20046;-68
2022/04/26 07:16:45;;;;;;;10.32;4.55;;;8.30;99.90;;;;;;5060031;28;20071;-73
2022/04/26 07:19:15;;;;;;;10.88;5.10;;;8.30;99.90;;;;;;5061087;28;20494;-73
2022/04/26 07:21:44;;;;;;;10.98;4.10;;;8.50;99.90;;;;;;5059288;28;20048;-73
2022/04/26 07:24:31;;;;;;;12.82;5.93;;;8.50;99.90;;;;;;5053744;28;20056;-72
2022/04/26 07:26:58;;;;;;;9.55;5.22;;;8.60;99.90;;;;;;5060285;28;20052;-73
2022/04/26 07:29:25;;;;;;;10.35;5.20;;;8.60;99.90;;;;;;5077028;28;20101;-73
2022/04/26 07:31:52;;;;;;;10.18;5.28;;;8.70;99.90;;;;;;5059581;28;20048;-73
2022/04/26 07:34:23;;;;;;;10.55;4.47;;;8.70;99.90;;;;;;5060969;28;20060;-71
2022/04/26 07:37:01;;;;;;;8.95;4.90;;;8.80;99.90;;;;;;5061128;28;20071;-71
2022/04/26 07:39:29;;;;;;;6.53;4.10;;;8.90;99.90;;;;;;5059089;28;20472;-71
2022/04/26 07:41:57;;;;;;;7.30;3.90;;;8.90;99.90;;;;;;5059860;28;20055;-71
2022/04/26 07:44:23;;;;;;;10.25;4.25;;;9.00;99.90;;;;;;5061493;28;20499;-71
2022/04/26 07:46:50;;;;;;;6.88;3.83;;;9.10;99.90;;;;;;5059660;28;20048;-71
2022/04/26 07:49:19;;;;;;;10.63;3.92;;;9.10;99.90;;;;;;5061734;28;20049;-71
2022/04/26 07:51:46;;;;;;;8.00;3.92;;;9.20;99.90;;;;;;5057315;28;20083;-70
2022/04/26 07:54:16;;;;;;;10.52;4.47;;;9.30;99.90;;;;;;5058990;28;20067;-70
2022/04/26 07:56:43;;;;;;;6.43;3.67;;;9.40;99.90;;;;;;5043029;28;20052;-66
2022/04/26 07:59:10;;;;;;;7.22;3.67;;;9.50;99.90;;;;;;5060482;28;20483;-61
2022/04/26 08:01:37;;;;;;;13.52;3.72;;;9.60;99.90;;;;;;5062118;28;20197;-65
2022/04/26 08:04:04;;;;;;;7.25;4.03;;;9.60;99.90;;;;;;5050262;28;20052;-68
2022/04/26 08:06:31;;;;;;;9.00;3.80;;;9.70;99.90;;;;;;5062028;28;20468;-67
2022/04/26 08:08:58;;;;;;;6.60;3.83;;;9.80;99.90;;;;;;5063826;28;20049;-67
2022/04/26 08:11:28;;;;;;;6.82;3.60;;;9.80;99.90;;;;;;5059961;28;20062;-67
2022/04/26 08:13:55;;;;;;;10.02;3.30;;;9.90;99.90;;;;;;5060137;28;20373;-67
2022/04/26 08:16:22;;;;;;;4.80;2.90;;;9.90;99.90;;;;;;5075990;28;20507;-67
2022/04/26 08:18:49;;;;;;;14.50;12.13;;;10.00;99.90;;;;;;5060986;28;20098;-69
2022/04/26 08:21:17;;;;;;;6.82;4.68;;;10.10;99.90;;;;;;5052069;28;20044;-61
2022/04/26 08:29:17;;;;;;;5.80;3.15;;;10.30;99.20;;;;;;5062938;28;20476;-65
2022/04/26 08:31:44;;;;;;;7.78;2.90;;;10.50;97.30;;;;;;5064068;28;20047;-67
2022/04/26 08:34:11;;;;;;;7.60;2.70;;;10.50;93.00;;;;;;5063470;28;20052;-67
2022/04/26 08:36:38;;;;;;;4.15;2.55;;;10.50;91.90;;;;;;5062635;28;20124;-67
2022/04/26 08:39:05;;;;;;;7.88;2.97;;;10.60;89.70;;;;;;5080240;28;20501;-67
2022/04/26 08:41:31;;;;;;;6.72;2.72;;;10.70;90.80;;;;;;5061841;28;20061;-66
2022/04/26 08:43:58;;;;;;;8.55;3.47;;;10.70;87.50;;;;;;5064777;28;20048;-67
2022/04/26 08:50:59;;;;;;;4.05;2.55;;;10.80;91.70;;;;;;5063594;28;20479;-66
2022/04/26 08:52:03;;;;;;;5.07;2.20;;;10.90;85.60;;;;;;5072822;28;20163;-66
2022/04/26 08:54:31;;;;;;;5.00;2.30;;;10.90;79.00;;;;;;5064179;28;20048;-67
2022/04/26 08:56:59;;;;;;;5.32;2.22;;;11.00;79.80;;;;;;5059861;28;20085;-67
2022/04/26 08:59:26;;;;;;;4.03;2.15;;;11.00;78.60;;;;;;5059508;28;20932;-67
2022/04/26 09:02:19;;;;;;;4.18;1.95;;;11.10;80.90;;;;;;5079843;28;20740;-67
2022/04/26 09:04:49;;;;;;;4.50;2.30;;;11.20;75.30;;;;;;5046261;28;20102;-67
2022/04/26 09:07:33;;;;;;;6.07;2.90;;;11.20;75.30;;;;;;5052016;28;20056;-66
2022/04/26 09:10:10;;;;;;;3.63;2.58;;;11.20;76.30;;;;;;5074359;28;20049;-67
2022/04/26 09:13:09;;;;;;;4.03;2.00;;;11.30;76.30;;;;;;5065166;28;20059;-67
2022/04/26 09:15:52;;;;;;;6.18;2.50;;;11.50;73.80;;;;;;5066532;28;20512;-67
2022/04/26 09:18:30;;;;;;;4.47;2.22;;;11.60;71.80;;;;;;5076516;28;20044;-68
2022/04/26 09:20:59;;;;;;;2.40;1.70;;;11.60;73.50;;;;;;5062561;28;20048;-68
2022/04/26 09:23:27;;;;;;;7.65;2.58;;;11.50;74.50;;;;;;5075287;28;20105;-67
2022/04/26 09:26:12;;;;;;;5.72;2.33;;;11.70;74.90;;;;;;5079901;28;20057;-67
2022/04/26 09:28:42;;;;;;;5.35;2.50;;;11.80;75.30;;;;;;5063776;28;20098;-67
2022/04/26 09:31:22;;;;;;;;;;;11.80;71.70;;;;;;5079885;28;20055;-68
2022/04/26 09:34:04;;;;;;;3.38;2.40;;;11.90;68.70;;;;;;5062346;28;19920;-68
2022/04/26 09:36:36;;;;;;;4.28;3.58;;;11.70;71.20;;;;;;5063499;28;20094;-68
2022/04/26 09:39:05;;;;;;;20.88;15.02;;;11.80;69.90;;;;;;5079525;28;20084;-69
2022/04/26 09:41:34;;;;;;;4.35;3.08;;;11.70;70.40;;;;;;5062274;28;20075;-69
2022/04/26 09:44:06;;;;;;;5.13;2.20;;;11.70;68.50;;;;;;5064600;28;20052;-68
2022/04/26 09:46:54;;;;;;;4.13;2.08;;;11.80;67.10;;;;;;5079965;28;20048;-68
2022/04/26 09:49:22;;;;;;;5.88;2.22;;;11.90;67.50;;;;;;5062626;28;20418;-68
2022/04/26 09:51:55;;;;;;;7.10;2.05;;;12.00;67.50;;;;;;5063311;28;20492;-68
2022/04/26 09:54:23;;;;;;;3.40;2.28;;;12.00;67.10;;;;;;5062725;28;20040;-68
2022/04/26 09:56:49;;;;;;;4.00;2.20;;;12.10;68.20;;;;;;5063364;28;20046;-68
2022/04/26 09:59:29;;;;;;;6.03;2.42;;;12.10;69.20;;;;;;5064521;28;20044;-68
2022/04/26 10:01:58;;;;;;;5.60;2.10;;;12.30;68.70;;;;;;5078621;28;20530;-68
2022/04/26 10:04:27;;;;;;;3.42;2.03;;;12.40;68.90;;;;;;5080106;28;20079;-69
2022/04/26 10:07:05;;;;;;;4.97;2.03;;;12.40;68.20;;;;;;5043326;28;20511;-68
2022/04/26 10:09:33;;;;;;;3.85;2.30;;;12.50;66.50;;;;;;5060238;28;20055;-68
2022/04/26 10:12:01;;;;;;;4.80;2.20;;;12.60;70.10;;;;;;5066469;28;20040;-68
2022/04/26 10:14:29;;;;;;;6.38;2.38;;;12.70;67.20;;;;;;5064409;28;20545;-68
2022/04/26 10:16:59;;;;;;;7.22;2.10;;;12.60;64.20;;;;;;5065709;28;20064;-68
2022/04/26 10:19:47;;;;;;;4.05;2.40;;;12.60;67.20;;;;;;5065859;28;20063;-68
2022/04/26 10:23:08;;;;;;;5.07;1.90;;;12.70;64.90;;;;;;5067489;28;20047;-68
2022/04/26 10:25:35;;;;;;;7.72;2.00;;;12.70;63.30;;;;;;5053793;28;20049;-68
2022/04/26 10:28:24;;;;;;;4.30;2.65;;;12.50;65.90;;;;;;5061636;28;20060;-67
2022/04/26 10:30:51;;;;;;;3.05;1.73;;;12.50;66.60;;;;;;5078118;28;20061;-68
2022/04/26 10:33:37;;;;;;;5.45;2.00;;;12.50;65.60;;;;;;5062033;28;20040;-67
2022/04/26 10:36:20;;;;;;;2.95;2.10;;;12.60;66.00;;;;;;5060905;28;20052;-68
2022/04/26 10:39:20;;;;;;;4.18;2.60;;;12.60;64.60;;;;;;5044005;28;20111;-68
2022/04/26 10:41:47;;;;;;;;;;;12.60;64.00;;;;;;5069947;28;20052;-68
2022/04/26 10:44:14;;;;;;;6.60;2.47;;;12.70;65.30;;;;;;5063024;28;19942;-67
2022/04/26 10:46:41;;;;;;;6.90;2.85;;;12.80;64.70;;;;;;5062395;28;20395;-73
2022/04/26 10:49:26;;;;;;;6.00;4.45;;;12.80;66.80;;;;;;5061402;28;20634;-68
2022/04/26 10:51:56;;;;;;;4.43;2.63;;;12.80;64.90;;;;;;5062660;28;20047;-68
2022/04/26 10:55:02;;;;;;;3.53;1.85;;;13.00;65.20;;;;;;5059900;28;20072;-68
2022/04/26 10:57:30;;;;;;;4.07;2.03;;;13.00;62.40;;;;;;5062119;28;20063;-69
2022/04/26 11:00:10;;;;;;;4.40;2.17;;;13.00;64.10;;;;;;5060788;28;20059;-68
2022/04/26 11:02:43;;;;;;;7.63;2.22;;;13.00;62.50;;;;;;5076567;28;20052;-69
2022/04/26 11:05:10;;;;;;;4.70;2.20;;;13.10;64.60;;;;;;5076968;28;20044;-68
2022/04/26 11:07:39;;;;;;;3.15;1.83;;;13.10;64.00;;;;;;5075222;28;20114;-68
2022/04/26 11:10:06;;;;;;;3.88;1.80;;;13.20;63.80;;;;;;5060957;28;20055;-67
2022/04/26 11:12:34;;;;;;;6.35;2.53;;;13.10;64.20;;;;;;5061224;28;20064;-68
2022/04/26 11:15:05;;;;;;;3.67;1.90;;;13.10;63.70;;;;;;5060678;28;20052;-68
2022/04/26 11:17:32;;;;;;;4.80;2.40;;;13.00;62.30;;;;;;5061572;28;20064;-68
2022/04/26 11:20:20;;;;;;;3.95;2.30;;;13.10;63.10;;;;;;5061508;28;20090;-67
2022/04/26 11:22:48;;;;;;;5.90;2.03;;;13.10;61.20;;;;;;5062317;28;20102;-67
2022/04/26 11:28:09;;;;;;;5.15;2.15;;;13.30;62.50;;;;;;5061069;28;20652;-69
2022/04/26 11:30:47;;;;;;;4.05;2.13;;;13.30;61.70;;;;;;5061968;28;20045;-72
2022/04/26 11:33:19;;;;;;;3.75;2.17;;;13.40;63.30;;;;;;5076561;28;20052;-72
2022/04/26 11:35:54;;;;;;;3.10;2.00;;;13.50;63.40;;;;;;5061092;28;20155;-72
2022/04/26 11:38:21;;;;;;;3.95;2.00;;;13.60;63.20;;;;;;5059856;28;20511;-71
2022/04/26 11:40:56;;;;;;;6.53;2.70;;;13.80;62.00;;;;;;5060597;28;20440;-72
2022/04/26 11:43:24;;;;;;;4.55;2.03;;;14.00;62.00;;;;;;5060306;28;20131;-72
2022/04/26 11:45:52;;;;;;;4.75;2.28;;;14.00;62.50;;;;;;5060359;28;20048;-72
2022/04/26 11:48:21;;;;;;;4.13;2.20;;;14.10;60.70;;;;;;5078166;28;20040;-72
2022/04/26 11:50:48;;;;;;;4.30;2.13;;;14.00;61.00;;;;;;5060675;28;20102;-72
2022/04/26 11:53:20;;;;;;;5.50;2.10;;;14.00;62.00;;;;;;5059478;28;20040;-71
2022/04/26 11:55:57;;;;;;;4.28;2.35;;;14.10;60.80;;;;;;5043840;28;21073;-71
2022/04/26 11:58:38;;;;;;;5.72;2.33;;;14.10;62.40;;;;;;5061107;28;20044;-71
2022/04/26 12:01:16;;;;;;;5.82;4.60;;;14.20;59.60;;;;;;5061248;28;20279;-70
2022/04/26 12:03:51;;;;;;;5.07;3.38;;;14.20;60.00;;;;;;5061585;28;20055;-72
2022/04/26 12:06:29;;;;;;;5.68;2.67;;;14.40;60.10;;;;;;5060969;28;20200;-71
2022/04/26 12:09:02;;;;;;;3.33;2.30;;;14.50;61.10;;;;;;5060362;28;20131;-71
2022/04/26 12:11:32;;;;;;;4.50;2.45;;;14.70;59.80;;;;;;5076958;28;20045;-71
2022/04/26 12:14:00;;;;;;;8.88;3.13;;;14.80;60.30;;;;;;5061160;28;20044;-71
2022/04/26 12:16:28;;;;;;;4.90;2.30;;;14.80;58.70;;;;;;5061075;28;20056;-70
2022/04/26 12:19:03;;;;;;;3.42;2.20;;;14.60;59.40;;;;;;5060021;28;20487;-71
2022/04/26 12:21:43;;;;;;;5.07;2.22;;;14.70;61.20;;;;;;5061996;28;20044;-71
2022/04/26 12:24:14;;;;;;;3.92;2.28;;;14.70;56.40;;;;;;5059103;28;20661;-71
2022/04/26 12:27:02;;;;;;;3.65;2.63;;;14.70;57.40;;;;;;5060175;28;20178;-71
2022/04/26 12:29:38;;;;;;;5.28;2.50;;;14.50;57.90;;;;;;5060056;28;20055;-71
2022/04/26 12:32:10;;;;;;;8.35;2.45;;;14.50;60.00;;;;;;5063648;28;20044;-71
2022/04/26 12:34:47;;;;;;;3.65;2.47;;;14.30;59.70;;;;;;5061428;28;20048;-71
2022/04/26 12:37:23;;;;;;;4.78;2.30;;;14.30;59.40;;;;;;5059936;28;20045;-71
2022/04/26 12:39:52;;;;;;;3.92;2.47;;;14.50;58.60;;;;;;5061210;28;20178;-71
2022/04/26 12:42:30;;;;;;;4.18;2.17;;;14.70;58.80;;;;;;5061374;28;20127;-71
2022/04/26 12:44:59;;;;;;;6.03;3.13;;;14.90;58.30;;;;;;5061913;28;20048;-71
2022/04/26 12:50:29;;;;;;;5.05;2.63;;;14.80;57.60;;;;;;5066134;28;20064;-71
2022/04/26 12:53:00;;;;;;;4.38;1.83;;;14.70;57.70;;;;;;5075469;28;20463;-71
2022/04/26 12:55:36;;;;;;;4.15;2.35;;;14.70;57.70;;;;;;5079622;28;20519;-71
2022/04/26 12:58:04;;;;;;;4.28;2.40;;;15.00;58.10;;;;;;5063847;28;20049;-71
2022/04/26 13:00:32;;;;;;;3.40;2.40;;;15.30;58.70;;;;;;5062392;28;20095;-72
2022/04/26 13:03:03;;;;;;;6.63;2.72;;;15.40;56.40;;;;;;5064391;28;20063;-71
2022/04/26 13:05:40;;;;;;;4.80;2.45;;;15.40;54.90;;;;;;5063139;28;20563;-71
2022/04/26 13:08:09;;;;;;;3.35;2.30;;;15.30;54.00;;;;;;5071280;28;21064;-71
2022/04/26 13:10:36;;;;;;;3.38;2.53;;;15.20;55.30;;;;;;5080658;28;20048;-71
2022/04/26 13:13:03;;;;;;;6.15;3.15;;;15.20;57.20;;;;;;5064595;28;20824;-71
2022/04/26 13:15:30;;;;;;;3.78;2.40;;;15.40;55.30;;;;;;5063543;28;20056;-71
2022/04/26 13:17:57;;;;;;;2.80;2.25;;;15.50;55.60;;;;;;5063277;28;20144;-70
2022/04/26 13:20:24;;;;;;;3.78;2.10;;;15.70;55.30;;;;;;5063069;28;20049;-73
2022/04/26 13:22:51;;;;;;;4.72;2.78;;;15.80;54.80;;;;;;5063301;28;20396;-72
2022/04/26 13:25:18;;;;;;;5.85;4.70;;;15.70;53.50;;;;;;5062276;28;20067;-72
2022/04/26 13:27:47;;;;;;;4.38;2.28;;;15.70;53.70;;;;;;5045844;28;20548;-71
2022/04/26 13:30:15;;;;;;;4.53;2.63;;;15.70;54.50;;;;;;5062676;28;20055;-71
2022/04/26 13:32:42;;;;;;;3.67;1.92;;;15.60;54.70;;;;;;5062809;28;20750;-71
2022/04/26 13:35:10;;;;;;;4.78;2.25;;;15.70;54.70;;;;;;5062823;28;20076;-71
2022/04/26 13:37:38;;;;;;;4.07;2.42;;;15.70;53.50;;;;;;5062557;28;20138;-71
2022/04/26 13:40:06;;;;;;;3.53;2.03;;;15.50;53.30;;;;;;5062391;28;20046;-72
2022/04/26 13:42:35;;;;;;;3.10;1.98;;;15.40;54.50;;;;;;5079457;28;20284;-71
2022/04/26 13:45:02;;;;;;;5.10;2.13;;;15.40;54.40;;;;;;5064534;28;20048;-71
2022/04/26 13:47:30;;;;;;;3.95;2.53;;;15.60;55.50;;;;;;5038443;28;20369;-71
2022/04/26 13:49:57;;;;;;;4.60;2.60;;;15.70;54.40;;;;;;5074903;28;20052;-71
2022/04/26 13:52:24;;;;;;;4.10;2.10;;;15.80;54.40;;;;;;5062080;28;20063;-71
2022/04/26 13:54:51;;;;;;;4.95;2.00;;;15.70;53.80;;;;;;5064368;28;20052;-71
2022/04/26 13:57:18;;;;;;;5.50;2.63;;;15.60;54.30;;;;;;5062561;28;20056;-71
2022/04/26 13:59:45;;;;;;;3.45;2.40;;;15.60;54.90;;;;;;5063313;28;20057;-71
2022/04/26 14:02:12;;;;;;;7.63;2.72;;;15.60;54.40;;;;;;5078904;28;20040;-71
2022/04/26 14:04:42;;;;;;;4.45;2.30;;;15.60;55.50;;;;;;5077145;28;20049;-72
2022/04/26 14:07:09;;;;;;;3.95;2.40;;;15.60;55.50;;;;;;5079419;28;20483;-71
2022/04/26 14:09:36;;;;;;;3.33;2.03;;;15.50;54.50;;;;;;5061919;28;20044;-71
2022/04/26 14:12:04;;;;;;;2.88;1.92;;;15.50;55.20;;;;;;5061920;28;20087;-71
2022/04/26 14:22:47;;;;;;;2.70;2.08;;;15.50;55.30;;;;;;5062399;28;20151;-71
2022/04/26 14:25:14;;;;;;;3.78;2.50;;;15.50;55.00;;;;;;5077915;28;20140;-71
2022/04/26 14:27:42;;;;;;;2.67;2.00;;;15.40;54.80;;;;;;5063859;28;20048;-72
2022/04/26 14:30:11;;;;;;;16.80;13.25;;;15.50;55.30;;;;;;5063299;28;20063;-63
2022/04/26 14:32:58;;;;;;;12.65;7.55;;;15.40;54.30;;;;;;5061620;28;20499;-73
2022/04/26 14:35:27;;;;;;;5.95;3.63;;;15.50;55.10;;;;;;5060785;28;20055;-71
2022/04/26 14:37:54;;;;;;;4.57;2.92;;;15.60;55.90;;;;;;5045480;28;20411;-71
2022/04/26 14:40:21;;;;;;;4.03;2.67;;;15.60;56.30;;;;;;5060446;28;20059;-72
2022/04/26 14:42:48;;;;;;;5.25;2.30;;;15.60;55.70;;;;;;5078522;28;20048;-72
2022/04/26 14:45:15;;;;;;;4.40;2.47;;;15.70;56.70;;;;;;5061941;28;20052;-72
2022/04/26 14:47:42;;;;;;;5.00;2.40;;;15.70;55.20;;;;;;5058804;28;20048;-72
2022/04/26 14:50:10;;;;;;;3.65;2.22;;;15.80;56.30;;;;;;5061227;28;20503;-72
2022/04/26 14:52:37;;;;;;;6.50;3.03;;;15.80;56.60;;;;;;5060668;28;20495;-72
2022/04/26 14:55:07;;;;;;;8.80;2.78;;;15.80;56.30;;;;;;5062446;28;20159;-72
2022/04/26 14:57:35;;;;;;;3.58;2.47;;;15.80;56.30;;;;;;5045556;28;20601;-72
2022/04/26 15:00:06;;;;;;;4.63;2.70;;;15.80;54.80;;;;;;5060488;28;20511;-72
2022/04/26 15:02:38;;;;;;;3.13;2.40;;;15.90;54.70;;;;;;5052788;28;20056;-73
2022/04/26 15:05:07;;;;;;;6.80;2.58;;;15.70;55.40;;;;;;5044357;28;20094;-72
2022/04/26 15:10:23;;;;;;;4.80;2.40;;;15.60;55.20;;;;;;5060042;28;20075;-72
2022/04/26 15:18:21;;;;;;;5.05;2.58;;;15.40;56.80;;;;;;5060810;28;20044;-71
2022/04/26 15:20:52;;;;;;;3.95;2.20;;;15.40;56.80;;;;;;5060434;28;20048;-72
2022/04/26 15:23:20;;;;;;;4.95;2.25;;;15.40;57.30;;;;;;5062645;28;20098;-72
2022/04/26 15:25:52;;;;;;;4.53;2.25;;;15.40;57.90;;;;;;5059688;28;20130;-72
2022/04/26 15:28:19;;;;;;;6.10;2.63;;;15.40;58.20;;;;;;5062665;28;20056;-72
2022/04/26 15:30:48;;;;;;;3.90;3.28;;;15.20;57.80;;;;;;5060446;28;20809;-71
2022/04/26 15:33:15;;;;;;;4.60;2.40;;;15.10;58.40;;;;;;5077876;28;20601;-73
2022/04/26 15:35:42;;;;;;;5.53;3.17;;;15.10;59.70;;;;;;5077360;28;20408;-71
2022/04/26 15:38:12;;;;;;;4.43;2.40;;;15.00;59.50;;;;;;5061368;28;20055;-72
2022/04/26 15:40:46;;;;;;;4.47;2.95;;;15.00;61.00;;;;;;5043873;28;20049;-72
2022/04/26 15:43:13;;;;;;;6.57;2.22;;;14.90;60.80;;;;;;5063080;28;20414;-72
2022/04/26 15:45:42;;;;;;;4.90;2.70;;;14.90;60.80;;;;;;5060475;28;20055;-72
2022/04/26 15:48:09;;;;;;;6.32;2.90;;;14.90;60.10;;;;;;5062329;28;20048;-71
2022/04/26 15:50:39;;;;;;;4.75;3.55;;;15.00;59.90;;;;;;5057709;28;20049;-72
2022/04/26 15:53:06;;;;;;;12.57;3.55;;;14.90;61.60;;;;;;5060021;28;20135;-71
2022/04/26 15:55:35;;;;;;;5.38;2.90;;;14.80;62.20;;;;;;5060296;28;20548;-71
2022/04/26 15:58:02;;;;;;;5.57;3.40;;;14.80;62.90;;;;;;5061400;28;20907;-72
2022/04/26 16:00:29;;;;;;;4.65;3.20;;;14.80;62.30;;;;;;5060110;28;20215;-73
2022/04/26 16:02:56;;;;;;;4.68;3.30;;;14.90;63.60;;;;;;5060182;28;20044;-70
2022/04/26 16:05:23;;;;;;;15.48;11.35;;;14.90;61.50;;;;;;5061827;28;20858;-72
2022/04/26 16:07:51;;;;;;;5.03;2.85;;;15.10;63.00;;;;;;5056592;28;20062;-71
2022/04/26 16:21:25;;;;;;;3.85;2.67;;;15.00;61.10;;;;;;5059509;28;20573;-69
2022/04/26 16:23:54;;;;;;;11.32;3.15;;;15.00;61.10;;;;;;5062414;28;20063;-70
2022/04/26 16:26:22;;;;;;;4.32;2.50;;;15.00;61.10;;;;;;5060486;28;20047;-70
2022/04/26 16:28:51;;;;;;;7.35;3.13;;;14.80;59.70;;;;;;5062708;28;20046;-71
2022/04/26 16:31:20;;;;;;;5.05;2.40;;;14.70;60.40;;;;;;5064045;28;20109;-76
2022/04/26 16:33:48;;;;;;;5.13;3.63;;;14.70;63.50;;;;;;5075408;28;20055;-69
2022/04/26 16:36:15;;;;;;;4.60;2.60;;;14.70;64.60;;;;;;5063099;28;20469;-70
2022/04/26 16:38:43;;;;;;;5.30;2.75;;;14.70;63.60;;;;;;5063361;28;20054;-68
2022/04/26 16:41:10;;;;;;;45.53;34.15;;;14.60;60.80;;;;;;5064187;28;20049;-66
2022/04/26 16:43:37;;;;;;;7.15;4.80;;;14.60;63.30;;;;;;5063681;28;20041;-71
2022/04/26 16:46:03;;;;;;;3.28;2.80;;;14.60;61.20;;;;;;5063692;28;20040;-72
2022/04/26 16:48:30;;;;;;;2.90;2.53;;;14.50;60.10;;;;;;5066183;28;20055;-72
2022/04/26 16:50:58;;;;;;;4.75;2.47;;;14.40;60.30;;;;;;5060491;28;20423;-73
2022/04/26 16:53:25;;;;;;;7.03;3.50;;;14.30;60.40;;;;;;5059105;28;20434;-68
2022/04/26 16:55:52;;;;;;;7.57;4.15;;;14.20;66.80;;;;;;5063186;28;20063;-70
2022/04/26 16:58:19;;;;;;;8.07;3.95;;;14.10;69.00;;;;;;5070195;28;20059;-75
2022/04/26 17:00:48;;;;;;;6.03;4.00;;;14.20;69.70;;;;;;5063913;28;20049;-71
2022/04/26 17:03:15;;;;;;;10.68;4.45;;;14.20;70.60;;;;;;5062851;28;20055;-70
2022/04/26 17:05:47;;;;;;;8.32;4.55;;;14.30;71.60;;;;;;5062483;28;20059;-69
2022/04/26 17:08:15;;;;;;;5.18;3.55;;;14.30;70.20;;;;;;5049066;28;20117;-70
2022/04/26 17:10:42;;;;;;;6.22;4.13;;;14.20;70.60;;;;;;5063702;28;20076;-71
2022/04/26 17:13:09;;;;;;;6.78;4.30;;;14.30;71.40;;;;;;5063269;28;20053;-70
2022/04/26 17:15:36;;;;;;;8.02;4.20;;;14.30;73.10;;;;;;5079619;28;20531;-70
2022/04/26 17:18:04;;;;;;;7.53;4.72;;;14.20;73.20;;;;;;5062248;28;20055;-67
2022/04/26 17:20:34;;;;;;;6.45;5.03;;;14.20;73.40;;;;;;5079641;28;20495;-70
2022/04/26 17:23:02;;;;;;;28.23;21.90;;;14.20;73.70;;;;;;5058118;28;20044;-70